Time;durP1;ratioP1;P1;durP2;ratioP2;P2;SDS_P1;SDS_P2;PMS_P1;PMS_P2;Temp;Humidity;BMP_temperature;BMP_pressure;BME280_temperature;BME280_humidity;BME280_pressure;Samples;Min_cycle;Max_cycle;Signal;HPM_P1;HPM_P2
2023/04/07 00:01:21;;;;;;;7.23;6.53;;;10.30;63.70;;;;;;940261;149;27329;-77
2023/04/07 00:03:47;;;;;;;6.60;5.97;;;10.30;63.70;;;;;;935889;148;27325;-77
2023/04/07 00:06:13;;;;;;;6.30;5.67;;;10.30;64.00;;;;;;933303;149;27362;-77
2023/04/07 00:08:40;;;;;;;6.27;5.57;;;10.20;64.20;;;;;;933197;149;27527;-77
2023/04/07 00:11:07;;;;;;;6.40;5.33;;;10.20;64.50;;;;;;932826;149;27326;-77
2023/04/07 00:13:33;;;;;;;5.77;5.17;;;10.20;64.50;;;;;;931177;149;27429;-77
2023/04/07 00:16:01;;;;;;;4.83;4.43;;;10.20;64.60;;;;;;912893;152;27282;-77
2023/04/07 00:18:28;;;;;;;5.37;4.90;;;10.20;64.80;;;;;;913423;154;27471;-77
2023/04/07 00:20:54;;;;;;;4.97;4.50;;;10.20;64.60;;;;;;912499;154;27362;-77
2023/04/07 00:23:21;;;;;;;4.33;3.83;;;10.20;64.80;;;;;;913137;154;27432;-77
2023/04/07 00:25:48;;;;;;;4.60;4.20;;;10.20;64.50;;;;;;913104;154;27501;-77
2023/04/07 00:28:14;;;;;;;5.77;4.50;;;10.20;64.80;;;;;;913235;154;27463;-77
2023/04/07 00:30:41;;;;;;;4.57;4.23;;;10.20;64.60;;;;;;913270;154;27391;-77
2023/04/07 00:33:07;;;;;;;4.80;4.40;;;10.20;64.70;;;;;;914246;154;27385;-77
2023/04/07 00:35:34;;;;;;;4.10;3.80;;;10.20;64.70;;;;;;913358;154;27413;-77
2023/04/07 00:38:01;;;;;;;4.30;3.90;;;10.10;64.90;;;;;;911611;154;27408;-77
2023/04/07 00:40:27;;;;;;;4.50;4.10;;;10.10;65.10;;;;;;912003;154;27438;-77
2023/04/07 00:42:53;;;;;;;4.40;4.00;;;10.10;64.90;;;;;;908230;155;27339;-77
2023/04/07 00:45:20;;;;;;;4.37;4.00;;;10.10;64.90;;;;;;938797;149;27365;-77
2023/04/07 00:47:47;;;;;;;4.90;4.47;;;10.10;65.20;;;;;;932708;149;27481;-77
2023/04/07 00:50:13;;;;;;;4.27;3.90;;;10.10;65.30;;;;;;911024;153;27366;-77
2023/04/07 00:52:41;;;;;;;4.80;4.40;;;10.10;65.10;;;;;;908829;155;27398;-77
2023/04/07 00:55:08;;;;;;;4.63;4.20;;;10.00;65.30;;;;;;911147;155;27376;-77
2023/04/07 00:57:35;;;;;;;4.53;4.13;;;10.10;65.60;;;;;;910924;155;27366;-77
2023/04/07 01:00:01;;;;;;;5.03;4.03;;;10.00;65.50;;;;;;909810;155;27444;-77
2023/04/07 01:02:33;;;;;;;4.30;3.90;;;10.00;65.50;;;;;;912270;154;27397;-77
2023/04/07 01:05:09;;;;;;;4.90;4.50;;;10.00;65.60;;;;;;921202;151;27351;-78
2023/04/07 01:07:54;;;;;;;4.67;4.27;;;10.00;65.60;;;;;;936825;148;27309;-78
2023/04/07 01:10:29;;;;;;;4.43;4.10;;;10.00;65.60;;;;;;931290;149;27507;-77
2023/04/07 01:12:58;;;;;;;4.70;4.30;;;10.00;65.60;;;;;;933862;149;27393;-78
2023/04/07 01:15:25;;;;;;;4.63;4.23;;;9.90;65.80;;;;;;927593;149;27347;-78
2023/04/07 01:17:54;;;;;;;4.73;4.30;;;9.90;65.70;;;;;;934879;149;27399;-77
2023/04/07 01:20:21;;;;;;;5.77;4.43;;;9.90;66.10;;;;;;938362;150;27324;-78
2023/04/07 01:22:50;;;;;;;5.27;4.77;;;9.90;65.90;;;;;;934738;149;27366;-78
2023/04/07 01:25:27;;;;;;;4.87;4.37;;;9.90;66.40;;;;;;939731;150;27361;-77
2023/04/07 01:27:55;;;;;;;4.90;3.87;;;9.90;66.40;;;;;;943504;147;27464;-77
2023/04/07 01:30:22;;;;;;;4.83;4.43;;;9.90;66.40;;;;;;939213;148;27288;-78
2023/04/07 01:32:48;;;;;;;5.47;4.70;;;9.90;66.80;;;;;;937011;148;27727;-77
2023/04/07 01:35:15;;;;;;;5.23;4.83;;;9.80;66.60;;;;;;937071;148;27345;-77
2023/04/07 01:37:42;;;;;;;5.40;4.57;;;9.90;66.70;;;;;;939062;149;27368;-77
2023/04/07 01:40:08;;;;;;;5.10;4.60;;;9.80;66.40;;;;;;935333;149;27307;-77
2023/04/07 01:42:35;;;;;;;5.20;4.67;;;9.80;67.00;;;;;;930687;150;27354;-77
2023/04/07 01:45:03;;;;;;;5.43;4.93;;;9.80;67.30;;;;;;932115;150;27357;-77
2023/04/07 01:47:29;;;;;;;5.07;4.57;;;9.80;67.50;;;;;;936748;150;27311;-76
2023/04/07 01:49:54;;;;;;;5.23;4.47;;;9.80;67.70;;;;;;932059;150;27818;-77
2023/04/07 01:52:21;;;;;;;4.70;4.30;;;9.80;67.90;;;;;;937289;148;27282;-76
2023/04/07 01:54:48;;;;;;;5.60;5.10;;;9.80;68.10;;;;;;922231;150;27387;-77
2023/04/07 01:57:14;;;;;;;5.13;4.60;;;9.80;67.90;;;;;;926560;150;27874;-77
2023/04/07 01:59:41;;;;;;;5.20;4.70;;;9.80;68.20;;;;;;935352;149;27263;-77
2023/04/07 02:02:07;;;;;;;6.00;5.20;;;9.80;67.90;;;;;;934747;149;27349;-76
2023/04/07 02:04:37;;;;;;;5.97;4.50;;;9.80;68.40;;;;;;941745;149;27388;-77
2023/04/07 02:07:10;;;;;;;4.33;4.03;;;9.70;68.80;;;;;;948339;148;28149;-77
2023/04/07 02:09:36;;;;;;;4.83;4.43;;;9.70;68.50;;;;;;896386;155;27414;-77
2023/04/07 02:12:02;;;;;;;5.53;4.60;;;9.70;68.90;;;;;;895090;156;27452;-77
2023/04/07 02:14:29;;;;;;;5.27;4.77;;;9.70;69.80;;;;;;910675;153;27385;-77
2023/04/07 02:16:55;;;;;;;5.07;4.63;;;9.70;70.30;;;;;;911064;153;27361;-77
2023/04/07 02:19:22;;;;;;;4.67;4.27;;;9.70;70.40;;;;;;911000;153;27921;-75
2023/04/07 02:21:49;;;;;;;5.10;4.67;;;9.60;70.40;;;;;;912976;154;27443;-74
2023/04/07 02:24:15;;;;;;;5.07;4.57;;;9.60;70.20;;;;;;914372;154;27309;-75
2023/04/07 02:26:42;;;;;;;4.87;4.30;;;9.60;70.10;;;;;;913218;154;27449;-74
2023/04/07 02:29:08;;;;;;;5.37;4.97;;;9.60;70.60;;;;;;913472;154;27494;-74
2023/04/07 02:31:35;;;;;;;5.20;4.70;;;9.60;70.40;;;;;;911380;155;27384;-74
2023/04/07 02:34:02;;;;;;;5.00;4.50;;;9.60;71.00;;;;;;906896;155;27412;-75
2023/04/07 02:36:28;;;;;;;5.43;4.93;;;9.60;70.60;;;;;;906588;155;27415;-74
2023/04/07 02:38:55;;;;;;;5.07;4.67;;;9.60;70.90;;;;;;941796;149;27470;-74
2023/04/07 02:41:21;;;;;;;5.40;4.53;;;9.60;70.90;;;;;;949504;148;27364;-74
2023/04/07 02:43:48;;;;;;;5.27;4.47;;;9.60;71.10;;;;;;916817;153;27326;-74
2023/04/07 02:46:15;;;;;;;4.57;4.13;;;9.60;70.90;;;;;;899677;153;27375;-75
2023/04/07 02:48:41;;;;;;;4.87;4.47;;;9.60;71.30;;;;;;914495;154;27413;-74
2023/04/07 02:51:08;;;;;;;4.83;4.43;;;9.60;71.70;;;;;;913920;154;27440;-74
2023/04/07 02:53:34;;;;;;;5.40;4.90;;;9.60;71.90;;;;;;912420;154;27481;-74
2023/04/07 02:56:01;;;;;;;5.13;4.73;;;9.60;71.20;;;;;;913350;154;27871;-74
2023/04/07 02:58:27;;;;;;;5.03;4.53;;;9.60;71.60;;;;;;913175;154;27385;-74
2023/04/07 03:00:54;;;;;;;5.10;4.60;;;9.60;71.80;;;;;;911157;153;27365;-74
2023/04/07 03:03:21;;;;;;;4.60;4.23;;;9.60;72.90;;;;;;915749;148;27372;-74
2023/04/07 03:05:47;;;;;;;5.53;5.03;;;9.60;72.30;;;;;;928096;150;27347;-74
2023/04/07 03:08:14;;;;;;;6.23;4.60;;;9.60;72.30;;;;;;939780;150;27350;-74
2023/04/07 03:10:40;;;;;;;5.43;4.93;;;9.60;72.60;;;;;;944079;148;27355;-74
2023/04/07 03:13:07;;;;;;;5.13;4.73;;;9.60;72.70;;;;;;942060;148;27353;-74
2023/04/07 03:15:34;;;;;;;5.90;4.77;;;9.60;72.60;;;;;;940611;149;27322;-74
2023/04/07 03:18:00;;;;;;;4.60;4.20;;;9.60;72.80;;;;;;949928;148;27304;-74
2023/04/07 03:20:27;;;;;;;5.87;5.27;;;9.60;73.00;;;;;;956250;147;27342;-74
2023/04/07 03:22:53;;;;;;;5.67;4.33;;;9.70;72.70;;;;;;958234;147;27450;-74
2023/04/07 03:25:20;;;;;;;5.63;5.13;;;9.70;72.60;;;;;;926566;149;27354;-74
2023/04/07 03:27:46;;;;;;;6.33;4.83;;;9.70;72.90;;;;;;937917;149;27637;-75
2023/04/07 03:30:13;;;;;;;5.10;4.63;;;9.70;72.60;;;;;;938945;150;27364;-74
2023/04/07 03:32:40;;;;;;;5.07;4.67;;;9.70;72.60;;;;;;943462;148;28007;-74
2023/04/07 03:35:06;;;;;;;5.27;4.77;;;9.60;72.90;;;;;;940577;150;27375;-74
2023/04/07 03:37:33;;;;;;;5.40;4.90;;;9.70;72.90;;;;;;944311;148;27249;-74
2023/04/07 03:40:00;;;;;;;5.57;4.70;;;9.60;72.60;;;;;;944218;148;27285;-74
2023/04/07 03:42:26;;;;;;;5.43;5.00;;;9.60;72.40;;;;;;943480;148;27357;-74
2023/04/07 03:44:53;;;;;;;5.40;4.90;;;9.60;73.10;;;;;;941804;150;27368;-75
2023/04/07 03:47:19;;;;;;;5.27;4.70;;;9.60;73.10;;;;;;948674;147;27264;-74
2023/04/07 03:49:46;;;;;;;4.43;4.07;;;9.60;72.70;;;;;;957163;147;27391;-75
2023/04/07 03:52:12;;;;;;;6.10;5.50;;;9.60;72.80;;;;;;943450;148;27495;-75
2023/04/07 03:54:39;;;;;;;5.23;4.73;;;9.60;72.70;;;;;;944673;147;27357;-74
2023/04/07 03:57:05;;;;;;;5.70;5.10;;;9.60;73.50;;;;;;951277;147;27292;-74
2023/04/07 03:59:32;;;;;;;7.30;5.83;;;9.60;73.30;;;;;;945785;148;27345;-74
2023/04/07 04:01:59;;;;;;;4.90;4.50;;;9.60;73.40;;;;;;944017;148;27870;-75
2023/04/07 04:04:25;;;;;;;5.60;5.10;;;9.60;73.20;;;;;;942465;148;27389;-74
2023/04/07 04:06:52;;;;;;;5.63;4.80;;;9.60;73.50;;;;;;938005;147;27336;-74
2023/04/07 04:09:19;;;;;;;5.67;5.13;;;9.60;73.40;;;;;;928475;149;27345;-74
2023/04/07 04:11:45;;;;;;;5.77;5.23;;;9.60;73.90;;;;;;928063;149;27449;-74
2023/04/07 04:14:12;;;;;;;4.97;4.57;;;9.60;73.90;;;;;;928992;149;27702;-74
2023/04/07 04:16:38;;;;;;;5.20;4.70;;;9.60;74.20;;;;;;937254;148;27427;-74
2023/04/07 04:19:05;;;;;;;6.03;5.00;;;9.60;73.70;;;;;;930293;149;27777;-74
2023/04/07 04:21:31;;;;;;;5.93;5.43;;;9.60;74.10;;;;;;937288;148;27387;-74
2023/04/07 04:23:58;;;;;;;6.13;5.53;;;9.60;74.50;;;;;;936768;148;27390;-75
2023/04/07 04:26:25;;;;;;;5.83;5.33;;;9.60;74.60;;;;;;929007;149;27442;-75
2023/04/07 04:28:51;;;;;;;5.10;4.63;;;9.60;74.60;;;;;;928883;149;27358;-74
2023/04/07 04:31:18;;;;;;;6.27;5.67;;;9.60;74.80;;;;;;929398;149;27659;-75
2023/04/07 04:33:44;;;;;;;6.17;5.57;;;9.60;75.00;;;;;;928929;149;27326;-74
2023/04/07 04:36:11;;;;;;;5.63;5.13;;;9.60;75.00;;;;;;929667;149;27313;-74
2023/04/07 04:38:37;;;;;;;5.97;5.37;;;9.60;74.60;;;;;;930651;149;27470;-75
2023/04/07 04:41:04;;;;;;;5.13;4.60;;;9.60;74.80;;;;;;929104;149;27326;-74
2023/04/07 04:43:31;;;;;;;6.03;5.07;;;9.60;74.90;;;;;;936731;148;27341;-74
2023/04/07 04:45:57;;;;;;;6.20;5.60;;;9.60;75.30;;;;;;937078;148;27801;-75
2023/04/07 04:48:24;;;;;;;5.77;5.17;;;9.60;75.80;;;;;;942068;147;27360;-74
2023/04/07 04:50:50;;;;;;;5.60;5.10;;;9.60;75.70;;;;;;932519;149;27380;-74
2023/04/07 04:53:17;;;;;;;6.03;5.47;;;9.60;76.00;;;;;;936652;148;27363;-75
2023/04/07 04:55:46;;;;;;;6.20;5.63;;;9.60;75.60;;;;;;921533;150;27422;-74
2023/04/07 04:58:10;;;;;;;6.40;5.80;;;9.60;76.40;;;;;;928971;149;27396;-74
2023/04/07 05:00:37;;;;;;;6.27;5.67;;;9.60;76.00;;;;;;936209;148;27398;-74
2023/04/07 05:03:03;;;;;;;5.90;5.37;;;9.60;75.90;;;;;;924108;150;27917;-74
2023/04/07 05:05:30;;;;;;;5.27;4.77;;;9.60;76.40;;;;;;934276;149;27316;-75
2023/04/07 05:07:56;;;;;;;5.80;5.30;;;9.60;76.50;;;;;;942053;149;27351;-74
2023/04/07 05:10:23;;;;;;;5.87;5.37;;;9.60;76.50;;;;;;941207;149;27494;-75
2023/04/07 05:12:50;;;;;;;6.07;5.57;;;9.60;76.00;;;;;;945027;149;27445;-75
2023/04/07 05:15:16;;;;;;;6.13;5.57;;;9.60;76.00;;;;;;944643;149;27328;-74
2023/04/07 05:17:43;;;;;;;6.40;5.27;;;9.60;76.40;;;;;;939918;150;27435;-74
2023/04/07 05:20:10;;;;;;;6.40;5.80;;;9.60;76.50;;;;;;939401;150;27306;-74
2023/04/07 05:22:36;;;;;;;5.77;5.10;;;9.60;76.90;;;;;;944541;148;27345;-74
2023/04/07 05:25:03;;;;;;;5.40;4.90;;;9.60;77.10;;;;;;943513;148;27365;-74
2023/04/07 05:27:29;;;;;;;5.50;5.00;;;9.60;77.30;;;;;;928271;151;27428;-73
2023/04/07 05:29:56;;;;;;;5.33;4.83;;;9.70;77.40;;;;;;943788;148;27298;-74
2023/04/07 05:32:22;;;;;;;5.70;5.07;;;9.70;77.20;;;;;;942403;148;27743;-75
2023/04/07 05:34:49;;;;;;;5.73;5.23;;;9.70;77.60;;;;;;946488;147;27440;-74
2023/04/07 05:37:16;;;;;;;5.20;4.70;;;9.70;77.50;;;;;;920326;151;27299;-74
2023/04/07 05:39:42;;;;;;;5.03;4.53;;;9.70;77.50;;;;;;923715;150;27374;-74
2023/04/07 05:42:09;;;;;;;5.40;4.90;;;9.70;77.10;;;;;;939806;150;27392;-74
2023/04/07 05:44:35;;;;;;;5.33;4.83;;;9.70;77.20;;;;;;940088;150;27920;-74
2023/04/07 05:47:07;;;;;;;4.67;4.27;;;9.70;77.30;;;;;;943177;149;27357;-75
2023/04/07 05:49:29;;;;;;;5.33;4.77;;;9.70;77.60;;;;;;942032;149;27326;-74
2023/04/07 05:51:55;;;;;;;5.03;4.60;;;9.70;78.00;;;;;;948579;148;27328;-74
2023/04/07 05:54:22;;;;;;;5.40;4.90;;;9.80;78.20;;;;;;947537;148;27423;-75
2023/04/07 05:56:48;;;;;;;5.10;4.60;;;9.80;78.40;;;;;;938951;150;27478;-75
2023/04/07 05:59:15;;;;;;;5.10;4.60;;;9.80;78.10;;;;;;952347;148;27350;-74
2023/04/07 06:01:41;;;;;;;4.60;4.30;;;9.80;78.40;;;;;;951124;148;27397;-74
2023/04/07 06:04:08;;;;;;;5.47;4.97;;;9.80;78.50;;;;;;943548;151;27332;-75
2023/04/07 06:06:35;;;;;;;4.67;4.27;;;9.80;78.50;;;;;;950218;147;27358;-75
2023/04/07 06:09:01;;;;;;;5.10;4.70;;;9.90;78.50;;;;;;942004;149;27493;-75
2023/04/07 06:11:28;;;;;;;4.80;4.40;;;9.90;78.50;;;;;;938225;150;27326;-74
2023/04/07 06:13:54;;;;;;;5.23;4.77;;;9.90;78.80;;;;;;942666;148;27381;-74
2023/04/07 06:16:21;;;;;;;5.30;4.80;;;9.90;78.60;;;;;;941910;149;27363;-76
2023/04/07 06:18:48;;;;;;;4.90;4.50;;;9.90;78.50;;;;;;943544;148;27352;-74
2023/04/07 06:21:14;;;;;;;4.73;4.33;;;9.90;78.70;;;;;;927451;150;27394;-74
2023/04/07 06:23:41;;;;;;;5.90;4.50;;;9.90;78.60;;;;;;937338;150;27330;-74
2023/04/07 06:26:13;;;;;;;4.57;4.17;;;10.00;79.00;;;;;;938677;150;27274;-74
2023/04/07 06:28:37;;;;;;;4.60;4.20;;;10.00;79.10;;;;;;937765;150;27385;-74
2023/04/07 06:31:03;;;;;;;4.80;4.33;;;10.00;79.50;;;;;;938648;150;27358;-74
2023/04/07 06:33:30;;;;;;;4.80;4.40;;;10.00;79.30;;;;;;938217;150;27381;-74
2023/04/07 06:35:57;;;;;;;4.67;4.27;;;10.00;79.40;;;;;;943338;148;27317;-74
2023/04/07 06:38:23;;;;;;;4.83;4.33;;;10.10;79.70;;;;;;941653;149;27354;-74
2023/04/07 06:40:50;;;;;;;5.03;4.57;;;10.10;79.80;;;;;;942649;149;27373;-74
2023/04/07 06:43:16;;;;;;;4.97;4.57;;;10.10;79.80;;;;;;940935;149;27326;-74
2023/04/07 06:45:43;;;;;;;4.73;4.33;;;10.10;80.00;;;;;;943742;148;27341;-74
2023/04/07 06:48:09;;;;;;;5.17;4.67;;;10.10;80.10;;;;;;943910;148;27442;-74
2023/04/07 06:50:37;;;;;;;4.70;4.30;;;10.20;80.10;;;;;;941020;149;27468;-74
2023/04/07 06:53:03;;;;;;;5.00;4.60;;;10.20;81.00;;;;;;941155;149;27441;-74
2023/04/07 06:55:30;;;;;;;6.17;4.80;;;10.20;79.90;;;;;;941302;149;27318;-74
2023/04/07 06:57:56;;;;;;;5.00;4.60;;;10.20;80.00;;;;;;942020;149;27331;-74
2023/04/07 07:00:22;;;;;;;5.40;4.97;;;10.20;79.70;;;;;;941346;149;27352;-74
2023/04/07 07:02:49;;;;;;;4.40;4.00;;;10.20;79.60;;;;;;943920;148;27446;-74
2023/04/07 07:05:16;;;;;;;6.20;4.53;;;10.20;79.80;;;;;;944312;148;27321;-74
2023/04/07 07:07:42;;;;;;;5.13;4.70;;;10.20;79.60;;;;;;942568;148;27298;-74
2023/04/07 07:10:12;;;;;;;4.83;4.43;;;10.20;80.20;;;;;;941219;152;27431;-74
2023/04/07 07:12:35;;;;;;;5.27;4.77;;;10.20;80.00;;;;;;925987;154;27506;-74
2023/04/07 07:15:02;;;;;;;4.87;4.47;;;10.20;79.90;;;;;;926808;151;27358;-74
2023/04/07 07:17:29;;;;;;;4.93;4.53;;;10.20;80.30;;;;;;925361;154;27357;-75
2023/04/07 07:19:55;;;;;;;4.60;4.20;;;10.20;80.40;;;;;;924451;152;27317;-74
2023/04/07 07:22:22;;;;;;;5.37;4.97;;;10.30;80.70;;;;;;925048;151;27341;-74
2023/04/07 07:24:48;;;;;;;5.07;4.67;;;10.30;80.90;;;;;;928667;152;27361;-74
2023/04/07 07:27:15;;;;;;;4.90;4.47;;;10.30;81.10;;;;;;931531;154;27867;-74
2023/04/07 07:29:42;;;;;;;5.43;4.93;;;10.40;81.20;;;;;;927694;153;27354;-74
2023/04/07 07:32:08;;;;;;;5.43;4.93;;;10.40;81.40;;;;;;928651;153;27323;-74
2023/04/07 07:34:35;;;;;;;5.60;5.10;;;10.40;81.40;;;;;;942630;152;27330;-74
2023/04/07 07:37:01;;;;;;;5.07;4.67;;;10.50;81.40;;;;;;929203;151;27467;-74
2023/04/07 07:39:28;;;;;;;5.30;4.80;;;10.50;81.40;;;;;;929774;152;27411;-74
2023/04/07 07:41:55;;;;;;;6.03;5.53;;;10.50;81.40;;;;;;931155;154;27334;-74
2023/04/07 07:44:22;;;;;;;6.37;5.10;;;10.60;81.40;;;;;;931124;154;27272;-74
2023/04/07 07:46:48;;;;;;;5.87;5.37;;;10.60;81.70;;;;;;929345;153;27370;-74
2023/04/07 07:49:14;;;;;;;5.40;4.90;;;10.60;81.50;;;;;;928274;151;27374;-74
2023/04/07 07:51:41;;;;;;;5.87;5.37;;;10.60;81.90;;;;;;939532;150;27803;-74
2023/04/07 07:54:08;;;;;;;5.70;5.20;;;10.70;81.30;;;;;;940997;152;27336;-74
2023/04/07 07:56:34;;;;;;;5.70;5.20;;;10.70;82.30;;;;;;927468;152;27455;-74
2023/04/07 07:59:01;;;;;;;6.00;5.40;;;10.70;81.60;;;;;;930322;154;27887;-74
2023/04/07 08:01:27;;;;;;;5.87;5.33;;;10.70;81.30;;;;;;943258;149;27330;-74
2023/04/07 08:03:54;;;;;;;5.57;5.07;;;10.70;81.40;;;;;;941480;151;27460;-74
2023/04/07 08:06:20;;;;;;;5.43;4.93;;;10.70;81.40;;;;;;926891;153;27720;-74
2023/04/07 08:08:47;;;;;;;7.43;5.73;;;10.70;81.60;;;;;;939772;149;27421;-74
2023/04/07 08:11:14;;;;;;;6.10;5.53;;;10.80;81.70;;;;;;941322;149;27442;-74
2023/04/07 08:13:44;;;;;;;5.87;5.27;;;10.80;81.70;;;;;;943138;149;27350;-74
2023/04/07 08:16:07;;;;;;;6.77;6.17;;;10.80;81.70;;;;;;940698;147;27402;-74
2023/04/07 08:18:33;;;;;;;6.47;5.83;;;10.80;82.20;;;;;;927577;150;27872;-74
2023/04/07 08:21:00;;;;;;;6.60;5.87;;;10.90;82.70;;;;;;944846;147;27440;-74
2023/04/07 08:23:26;;;;;;;6.20;5.60;;;10.90;82.30;;;;;;953744;147;27334;-75
2023/04/07 08:25:53;;;;;;;6.30;5.80;;;10.90;82.40;;;;;;928586;150;27334;-74
2023/04/07 08:28:21;;;;;;;6.07;5.57;;;10.90;82.30;;;;;;927238;150;27436;-74
2023/04/07 08:30:46;;;;;;;6.57;5.97;;;11.00;82.90;;;;;;927587;150;27444;-74
2023/04/07 08:33:13;;;;;;;6.50;5.90;;;11.00;83.30;;;;;;939684;150;27526;-75
2023/04/07 08:35:39;;;;;;;6.00;5.40;;;11.00;83.50;;;;;;943090;148;27335;-74
2023/04/07 08:38:07;;;;;;;6.23;5.73;;;11.10;83.60;;;;;;928191;150;27335;-78
2023/04/07 08:40:32;;;;;;;6.60;6.00;;;11.10;83.90;;;;;;940420;150;27353;-78
2023/04/07 08:42:59;;;;;;;6.60;5.97;;;11.20;83.80;;;;;;941143;149;27349;-78
2023/04/07 08:45:26;;;;;;;6.60;5.90;;;11.20;83.90;;;;;;942157;148;27322;-78
2023/04/07 08:47:58;;;;;;;6.33;5.70;;;11.30;83.80;;;;;;948047;148;27317;-78
2023/04/07 08:50:27;;;;;;;6.63;6.03;;;11.40;83.90;;;;;;941936;147;28091;-79
2023/04/07 08:52:54;;;;;;;6.57;5.87;;;11.40;83.70;;;;;;954796;147;28042;-78
2023/04/07 08:55:20;;;;;;;6.67;6.07;;;11.40;84.20;;;;;;939135;149;27336;-78
2023/04/07 08:57:47;;;;;;;6.80;6.10;;;11.50;84.50;;;;;;937597;149;27383;-78
2023/04/07 09:00:13;;;;;;;6.57;5.97;;;11.60;84.20;;;;;;944167;148;27306;-78
2023/04/07 09:02:40;;;;;;;6.27;5.70;;;11.60;83.80;;;;;;948402;147;27349;-78
2023/04/07 09:05:07;;;;;;;5.93;5.43;;;11.60;83.30;;;;;;945495;149;27301;-78
2023/04/07 09:07:33;;;;;;;6.80;6.13;;;11.70;83.20;;;;;;921699;152;27372;-78
2023/04/07 09:10:02;;;;;;;6.40;5.73;;;11.70;83.00;;;;;;920501;150;27405;-79
2023/04/07 09:12:26;;;;;;;8.60;5.90;;;11.70;83.40;;;;;;919551;150;27387;-79
2023/04/07 09:14:53;;;;;;;6.13;5.63;;;11.80;83.40;;;;;;920959;150;27462;-79
2023/04/07 09:17:20;;;;;;;6.77;6.20;;;11.70;83.50;;;;;;921383;150;27935;-79
2023/04/07 09:19:46;;;;;;;6.40;5.80;;;11.80;83.80;;;;;;919482;150;27310;-78
2023/04/07 09:22:13;;;;;;;6.90;6.20;;;11.80;83.90;;;;;;916229;150;27374;-79
2023/04/07 09:24:39;;;;;;;6.83;6.10;;;11.80;84.00;;;;;;919774;150;27477;-79
2023/04/07 09:27:18;;;;;;;7.07;6.37;;;11.90;84.20;;;;;;936691;148;27413;-79
2023/04/07 09:29:44;;;;;;;6.77;6.17;;;11.90;84.60;;;;;;936887;148;27283;-79
2023/04/07 09:32:12;;;;;;;6.87;6.00;;;12.00;84.30;;;;;;937383;148;27299;-79
2023/04/07 09:34:37;;;;;;;6.53;5.93;;;12.10;84.30;;;;;;922016;150;27359;-79
2023/04/07 09:37:04;;;;;;;5.97;5.43;;;12.10;84.30;;;;;;929108;149;27426;-79
2023/04/07 09:39:31;;;;;;;6.57;6.00;;;12.20;84.20;;;;;;927641;149;27310;-79
2023/04/07 09:41:57;;;;;;;6.30;5.70;;;12.20;84.00;;;;;;937083;148;27359;-79
2023/04/07 09:44:24;;;;;;;6.53;5.93;;;12.30;84.00;;;;;;929318;149;27365;-79
2023/04/07 09:46:53;;;;;;;6.57;6.07;;;12.30;83.70;;;;;;930088;149;27454;-79
2023/04/07 09:49:20;;;;;;;7.33;6.47;;;12.40;84.10;;;;;;928957;149;27423;-77
2023/04/07 09:51:52;;;;;;;6.43;5.83;;;12.50;84.50;;;;;;928566;149;27329;-77
2023/04/07 09:54:34;;;;;;;6.37;5.77;;;12.60;84.10;;;;;;929449;149;27369;-77
2023/04/07 09:57:01;;;;;;;6.10;5.50;;;12.70;83.70;;;;;;937942;148;27798;-78
2023/04/07 09:59:27;;;;;;;5.30;4.83;;;12.70;83.10;;;;;;936793;148;27379;-77
2023/04/07 10:01:54;;;;;;;6.20;5.67;;;12.70;82.30;;;;;;936933;148;27314;-77
2023/04/07 10:04:21;;;;;;;7.23;6.30;;;12.80;82.30;;;;;;928440;149;27330;-77
2023/04/07 10:06:47;;;;;;;6.77;6.20;;;12.80;82.10;;;;;;929365;149;27393;-77
2023/04/07 10:09:13;;;;;;;6.87;6.20;;;12.80;82.00;;;;;;940312;148;27308;-77
2023/04/07 10:11:40;;;;;;;7.10;6.40;;;12.80;82.40;;;;;;925278;149;27771;-77
2023/04/07 10:14:06;;;;;;;6.93;6.27;;;12.80;82.30;;;;;;927575;150;27307;-77
2023/04/07 10:16:33;;;;;;;6.77;6.13;;;12.90;82.50;;;;;;928064;150;27459;-77
2023/04/07 10:19:00;;;;;;;7.40;6.70;;;12.90;82.80;;;;;;927201;150;27780;-77
2023/04/07 10:21:26;;;;;;;7.00;6.30;;;13.00;83.60;;;;;;925023;152;27340;-77
2023/04/07 10:23:56;;;;;;;7.13;6.00;;;13.10;83.80;;;;;;943181;148;27369;-77
2023/04/07 10:26:23;;;;;;;6.13;5.53;;;13.20;83.50;;;;;;942672;148;27364;-77
2023/04/07 10:28:49;;;;;;;6.90;6.27;;;13.20;83.10;;;;;;940468;150;27365;-77
2023/04/07 10:31:15;;;;;;;6.60;5.70;;;13.40;82.80;;;;;;938226;149;27330;-77
2023/04/07 10:33:48;;;;;;;6.28;5.72;;;13.50;82.70;;;;;;929743;149;27840;-77
2023/04/07 10:36:14;;;;;;;5.77;5.27;;;13.60;82.40;;;;;;946647;148;27422;-77
2023/04/07 10:38:41;;;;;;;6.23;5.73;;;13.70;82.20;;;;;;936288;150;27349;-77
2023/04/07 10:41:34;;;;;;;6.50;5.80;;;13.80;81.60;;;;;;937141;150;27398;-77
2023/04/07 10:43:59;;;;;;;5.72;4.97;;;13.90;81.60;;;;;;950827;148;27452;-77
2023/04/07 10:46:26;;;;;;;7.87;6.08;;;14.00;81.20;;;;;;946853;148;27302;-77
2023/04/07 10:49:08;;;;;;;6.33;5.53;;;14.10;80.60;;;;;;926651;150;27362;-77
2023/04/07 10:51:34;;;;;;;5.70;5.20;;;14.20;80.20;;;;;;939586;150;27415;-78
2023/04/07 10:54:16;;;;;;;6.50;5.90;;;14.20;79.70;;;;;;943755;148;27345;-77
2023/04/07 10:57:09;;;;;;;5.83;5.25;;;14.30;79.10;;;;;;928073;150;27394;-77
2023/04/07 10:59:34;;;;;;;7.35;6.65;;;14.30;78.80;;;;;;927441;150;27475;-77
2023/04/07 11:02:16;;;;;;;7.97;6.17;;;14.30;78.20;;;;;;940927;150;27289;-77
2023/04/07 11:04:42;;;;;;;6.47;5.87;;;14.30;77.80;;;;;;941908;149;27318;-76
2023/04/07 11:07:08;;;;;;;6.23;5.73;;;14.30;77.60;;;;;;926885;149;27486;-76
2023/04/07 11:09:35;;;;;;;6.67;5.97;;;14.30;77.40;;;;;;937536;149;27540;-76
2023/04/07 11:12:01;;;;;;;6.95;6.25;;;14.20;77.00;;;;;;926290;150;27412;-76
2023/04/07 11:14:28;;;;;;;6.95;6.35;;;14.20;77.20;;;;;;926012;150;27753;-76
2023/04/07 11:16:55;;;;;;;7.13;6.43;;;14.10;77.10;;;;;;925890;150;27382;-76
2023/04/07 11:19:21;;;;;;;7.00;6.40;;;14.10;77.30;;;;;;926565;150;27358;-76
2023/04/07 11:21:48;;;;;;;6.50;5.90;;;14.10;77.40;;;;;;926814;150;27368;-76
2023/04/07 11:24:33;;;;;;;6.85;6.15;;;14.10;77.50;;;;;;926258;150;27375;-76
2023/04/07 11:27:00;;;;;;;6.67;6.00;;;14.10;77.40;;;;;;926959;150;27387;-76
2023/04/07 11:29:29;;;;;;;7.53;6.30;;;14.10;77.20;;;;;;927196;150;27323;-76
2023/04/07 11:31:55;;;;;;;7.43;6.73;;;14.00;77.20;;;;;;926868;150;27367;-76
2023/04/07 11:34:23;;;;;;;7.37;6.63;;;14.00;77.30;;;;;;925880;150;27334;-76
2023/04/07 11:36:49;;;;;;;7.97;6.97;;;14.00;77.10;;;;;;925557;150;27333;-76
2023/04/07 11:39:21;;;;;;;8.53;6.27;;;13.90;77.00;;;;;;926900;150;27275;-76
2023/04/07 11:41:48;;;;;;;7.43;6.33;;;13.90;77.10;;;;;;925041;150;27458;-76
2023/04/07 11:44:15;;;;;;;8.23;6.17;;;13.90;77.10;;;;;;926235;150;27354;-76
2023/04/07 11:46:57;;;;;;;6.93;6.33;;;13.80;77.50;;;;;;927106;150;27350;-76
2023/04/07 11:49:23;;;;;;;6.73;6.13;;;13.80;77.80;;;;;;926450;150;27299;-76
2023/04/07 11:51:50;;;;;;;8.47;6.57;;;13.70;78.40;;;;;;926171;150;27279;-76
2023/04/07 11:54:16;;;;;;;7.43;6.73;;;13.70;78.60;;;;;;926025;150;27353;-76
2023/04/07 11:56:43;;;;;;;7.00;6.27;;;13.70;79.20;;;;;;925782;150;27374;-76
2023/04/07 11:59:09;;;;;;;7.07;6.37;;;13.80;79.70;;;;;;926206;150;27354;-76
2023/04/07 12:01:40;;;;;;;7.47;6.67;;;13.80;79.60;;;;;;924343;150;27303;-76
2023/04/07 12:04:06;;;;;;;7.37;6.67;;;13.90;79.90;;;;;;940207;147;27377;-76
2023/04/07 12:06:37;;;;;;;7.95;6.85;;;13.90;79.90;;;;;;957396;147;27432;-76
2023/04/07 12:09:01;;;;;;;6.97;6.27;;;14.00;80.30;;;;;;932514;150;27453;-76
2023/04/07 12:11:28;;;;;;;7.42;6.72;;;14.00;80.20;;;;;;942190;149;27339;-76
2023/04/07 12:13:55;;;;;;;7.35;6.50;;;14.10;79.90;;;;;;941777;149;27420;-77
2023/04/07 12:16:21;;;;;;;8.23;6.87;;;14.10;80.10;;;;;;957707;146;27382;-76
2023/04/07 12:18:48;;;;;;;9.13;6.90;;;14.20;80.10;;;;;;940666;149;27335;-76
2023/04/07 12:21:14;;;;;;;8.03;6.85;;;14.30;80.20;;;;;;926481;150;27369;-76
2023/04/07 12:23:41;;;;;;;8.00;7.13;;;14.30;79.90;;;;;;943161;148;27391;-76
2023/04/07 12:26:08;;;;;;;8.13;7.30;;;14.40;79.90;;;;;;940798;149;27453;-76
2023/04/07 12:28:34;;;;;;;10.03;7.33;;;14.40;80.00;;;;;;941496;149;27369;-76
2023/04/07 12:31:00;;;;;;;7.23;6.53;;;14.50;79.60;;;;;;943232;148;27265;-76
2023/04/07 12:33:27;;;;;;;6.97;6.27;;;14.50;78.50;;;;;;925543;150;27411;-76
2023/04/07 12:35:54;;;;;;;7.60;6.90;;;14.50;79.50;;;;;;940962;149;27373;-76
2023/04/07 12:38:20;;;;;;;7.33;6.45;;;14.50;79.80;;;;;;942258;149;27434;-76
2023/04/07 12:40:47;;;;;;;6.77;6.17;;;14.60;80.20;;;;;;941734;149;27394;-76
2023/04/07 12:43:13;;;;;;;7.72;7.03;;;14.60;79.10;;;;;;943770;148;27394;-76
2023/04/07 12:45:40;;;;;;;8.78;7.92;;;14.60;79.10;;;;;;943204;148;27399;-77
2023/04/07 12:48:07;;;;;;;7.65;6.72;;;14.60;78.90;;;;;;943762;148;27438;-76
2023/04/07 12:50:33;;;;;;;7.92;7.12;;;14.50;78.80;;;;;;941961;149;27330;-76